East Charleston, VT (05833)

2:24 AM EST on January 18, 2017 (GMT -0500)
| | Change Station
Active Advisory: Small Craft Advisory

Elev -9999 ft 0.00 °N, 0.00 °E | Updated 9 minutes ago

Snow
Snow
°F
Feels Like °F
N
Wind Variable Wind from North
Gusts mph

Today
High -- | Low -- °F
--% Chance of Precip.
Yesterday
High -- | Low -- °F
Precip. -- in
Pressure 29.99 in
Visibility 4.0 miles
Clouds Scattered Clouds 1100 ft
Overcast 1900 ft
Dew Point Not available.
Humidity Not available.
Rainfall --
Snow Depth Not available.
7:20 AM 4:37 PM
Waning Gibbous, 65% visible
METAR KEFK 180715Z AUTO 15003KT 4SM -SN SCT011 OVC019 M02/M02 A2999 RMK AO2 T10171025
Pressure 29.99 in
Visibility 4.0 miles
Clouds Scattered Clouds 1100 ft
Overcast 1900 ft
Dew Point Not available.
Humidity Not available.
Rainfall --
Snow Depth Not available.
7:20 AM 4:37 PM
Waning Gibbous, 65% visible
METAR KEFK 180715Z AUTO 15003KT 4SM -SN SCT011 OVC019 M02/M02 A2999 RMK AO2 T10171025

Get Your Daily Forecast Email!

Thanks for signing up!

Be on the lookout for a verification email in your inbox.

You'll start receiving the daily forecast at 8 AM.

×

10-Day Weather Forecast

Almanac

Astronomy

Jan. 18, 2017 Rise Set
Actual Time
Civil Twilight
Nautical Twilight
Astronomical Twilight
Moon
Length of Visible Light
Length of Day
Tomorrow will be .
, % of the Moon is Illuminated

Today's Extremes

State Highs State Lows

Community

WunderPhotos

Upload Photos

1,962,540 photos uploaded!

WunderBlog® & News

Nearby

Air Quality

  Air Quality AQ Index Pollutant
Not available.

Snow Depth

Station Depth Elevation

Earthquake Activity

City Distance Mag. Time & Date
Minimum magnitude displayed is 2.5.

Coastal Water Temperatures

Place Temperature

Stations

Nearby Weather Stations

Station Location Temp. Windchill Dew Point Humidity Wind Precip. Elev Updated Type
                   

Watches & Warnings

Small Craft Advisory
Issued: 3:07 PM EST Jan. 17, 2017 – National Weather Service

... Small Craft Advisory now in effect from 1 am Wednesday to
midnight EST Wednesday night...

* winds... east 15 to 25 kt with gusts up to 30 kt.

* Seas... 5 to 8 feet.

Precautionary/preparedness actions...

A Small Craft Advisory means that wind speeds of 25 to 33 knots
are expected to produce hazardous wave conditions to small craft.
Inexperienced mariners... especially those operating smaller
vessels should avoid navigating in these conditions.